KHDN/HDN METAR and TAF weather

Enter ICAO airport designator
Station Type Date Time Source
KHDN METAR 2021/05/11 01:14 UTC NOAA

KHDN 110114Z AUTO 12011KT 9SM UP SCT012 BKN050 OVC100 02/01 A3006 RMK AO2 P0001 FZRANO


Station Type Date Time Source
KHDN Decoded METAR 2021/05/11 01:14 UTC NOAA

Hayden, Yampa Valley Airport, CO, United States (KHDN) 40-29N 107-13W
May 10, 2021 - 09:14 PM EDT / 2021.05.11 0114 UTC
Wind: from the ESE (120 degrees) at 13 MPH (11 KT):0
Visibility: 9 mile(s):0
Sky conditions: overcast
Weather: precipitation
Precipitation last hour: 0.01 inches
Temperature: 35 F (2 C)
Windchill: 26 F (-3 C):1
Dew Point: 33 F (1 C)
Relative Humidity: 93%
Pressure (altimeter): 30.06 in. Hg (1017 hPa)
ob: KHDN 110114Z AUTO 12011KT 9SM UP SCT012 BKN050 OVC100 02/01 A3006 RMK AO2 P0001 FZRANO
cycle: 1

Station Type Date Time Source
KHDN TAF 2021/05/11 01:40 UTC NOAA

TAF
AMD KHDN 110038Z 1101/1124 31008KT P6SM VCTS BKN050CB
TEMPO 1101/1103 P6SM -SNRA BKN020
FM110300 15004KT P6SM VCSH SCT040 BKN070
FM111100 22004KT P6SM VCSH SCT040 BKN060
FM111600 27006KT P6SM VCSH SCT025 BKN050

Example: see airport list